createdAt,value
2022-12-26T00:00:47.140Z,5.40
2022-12-26T00:01:52.062Z,6.72
2022-12-26T00:02:54.429Z,6.28
2022-12-26T00:03:57.193Z,5.88
2022-12-26T00:04:59.709Z,5.10
2022-12-26T00:06:02.138Z,4.10
2022-12-26T00:07:04.640Z,5.32
2022-12-26T00:08:07.917Z,6.63
2022-12-26T00:09:10.891Z,4.90
2022-12-26T00:10:13.234Z,8.90
2022-12-26T00:11:16.403Z,5.10
2022-12-26T00:12:18.744Z,3.90
2022-12-26T00:13:38.500Z,4.70
2022-12-26T00:14:43.306Z,4.57
2022-12-26T00:15:45.723Z,5.15
2022-12-26T00:16:48.155Z,3.80
2022-12-26T00:17:50.494Z,5.32
2022-12-26T00:18:53.730Z,7.05
2022-12-26T00:19:56.031Z,5.95
2022-12-26T00:20:58.392Z,5.97
2022-12-26T00:22:00.801Z,5.18
2022-12-26T00:23:03.163Z,5.22
2022-12-26T00:24:05.877Z,5.22
2022-12-26T00:25:08.425Z,4.38
2022-12-26T00:26:16.324Z,5.28
2022-12-26T00:27:18.661Z,5.50
2022-12-26T00:28:21.083Z,7.53
2022-12-26T00:29:23.508Z,4.43
2022-12-26T00:30:25.813Z,8.90
2022-12-26T00:31:31.958Z,5.07
2022-12-26T00:32:34.292Z,4.45
2022-12-26T00:33:37.335Z,3.45
2022-12-26T00:34:40.488Z,4.18
2022-12-26T00:35:42.806Z,3.95
2022-12-26T00:36:45.594Z,5.07
2022-12-26T00:37:47.905Z,4.55
2022-12-26T00:38:52.193Z,4.00
2022-12-26T00:39:54.591Z,6.63
2022-12-26T00:40:57.998Z,5.07
2022-12-26T00:42:00.326Z,6.05
2022-12-26T00:43:02.611Z,4.30
2022-12-26T00:44:04.931Z,4.13
2022-12-26T00:45:07.864Z,3.42
2022-12-26T00:46:11.065Z,4.05
2022-12-26T00:47:13.441Z,3.60
2022-12-26T00:48:15.767Z,4.50
2022-12-26T00:49:18.090Z,3.25
2022-12-26T00:50:20.421Z,3.95
2022-12-26T00:51:22.767Z,7.82
2022-12-26T00:52:25.320Z,3.78
2022-12-26T00:53:28.164Z,6.30
2022-12-26T00:54:31.377Z,4.93
2022-12-26T00:55:33.649Z,4.30
2022-12-26T00:56:35.940Z,4.05
2022-12-26T00:57:38.258Z,3.60
2022-12-26T00:58:42.086Z,3.83
2022-12-26T00:59:44.451Z,5.25
2022-12-26T01:00:47.558Z,5.10
2022-12-26T01:01:50.206Z,3.83
2022-12-26T01:02:52.786Z,3.30
2022-12-26T01:03:55.510Z,4.28
2022-12-26T01:04:57.924Z,4.90
2022-12-26T01:06:02.875Z,5.03
2022-12-26T01:07:05.235Z,5.78
2022-12-26T01:08:22.442Z,4.50
2022-12-26T01:09:26.296Z,3.17
2022-12-26T01:10:28.701Z,4.22
2022-12-26T01:11:40.208Z,4.47
2022-12-26T01:12:42.779Z,3.63
2022-12-26T01:13:45.063Z,8.50
2022-12-26T01:14:47.675Z,3.15
2022-12-26T01:15:51.409Z,4.95
2022-12-26T01:16:53.808Z,3.45
2022-12-26T01:17:56.123Z,4.05
2022-12-26T01:18:58.506Z,3.33
2022-12-26T01:20:01.165Z,3.60
2022-12-26T01:21:07.017Z,3.45
2022-12-26T01:22:09.484Z,2.22
2022-12-26T01:23:11.842Z,3.58
2022-12-26T01:24:14.120Z,2.80
2022-12-26T01:25:16.475Z,4.70
2022-12-26T01:26:20.328Z,3.35
2022-12-26T01:27:24.788Z,5.10
2022-12-26T01:28:27.098Z,4.53
2022-12-26T01:29:29.462Z,3.65
2022-12-26T01:30:31.815Z,3.13
2022-12-26T01:31:34.222Z,3.35
2022-12-26T01:32:36.581Z,2.88
2022-12-26T01:33:38.899Z,4.07
2022-12-26T01:34:41.406Z,2.78
2022-12-26T01:35:51.634Z,3.22
2022-12-26T01:36:54.361Z,3.65
2022-12-26T01:37:56.710Z,2.70
2022-12-26T01:38:59.101Z,2.03
2022-12-26T01:40:01.482Z,2.58
2022-12-26T01:41:22.144Z,3.60
2022-12-26T01:42:26.235Z,2.55
2022-12-26T01:43:50.159Z,3.58
2022-12-26T01:45:01.956Z,3.78
2022-12-26T01:46:04.345Z,2.70
2022-12-26T01:47:06.924Z,3.13
2022-12-26T01:48:35.678Z,2.17
2022-12-26T01:49:42.999Z,3.15
2022-12-26T01:50:54.420Z,3.17
2022-12-26T01:53:07.500Z,2.38
2022-12-26T01:54:39.774Z,5.22
2022-12-26T01:55:34.420Z,2.42
2022-12-26T01:56:39.660Z,3.35
2022-12-26T01:57:50.020Z,2.20
2022-12-26T01:59:01.019Z,2.30
2022-12-26T02:00:06.227Z,4.57
2022-12-26T02:01:16.236Z,2.40
2022-12-26T02:02:21.825Z,3.33
2022-12-26T02:03:43.130Z,7.38
2022-12-26T02:05:09.286Z,2.17
2022-12-26T02:06:14.299Z,3.22
2022-12-26T02:07:16.792Z,2.28
2022-12-26T02:08:23.983Z,2.53
2022-12-26T02:09:26.477Z,1.48
2022-12-26T02:10:31.084Z,2.17
2022-12-26T02:11:44.631Z,3.58
2022-12-26T02:12:48.316Z,1.63
2022-12-26T02:13:50.749Z,2.35
2022-12-26T02:14:53.087Z,1.77
2022-12-26T02:15:56.626Z,2.65
2022-12-26T02:16:59.055Z,1.70
2022-12-26T02:18:01.411Z,2.58
2022-12-26T02:19:06.403Z,3.20
2022-12-26T02:20:22.312Z,2.00
2022-12-26T02:21:43.724Z,6.05
2022-12-26T02:23:07.096Z,2.25
2022-12-26T02:24:39.026Z,3.35
2022-12-26T02:27:30.604Z,1.85
2022-12-26T02:28:49.166Z,1.90
2022-12-26T02:29:57.865Z,1.98
2022-12-26T02:31:31.717Z,2.63
2022-12-26T02:32:52.998Z,1.45
2022-12-26T02:34:11.616Z,1.67
2022-12-26T02:35:44.313Z,2.42
2022-12-26T02:37:08.521Z,2.10
2022-12-26T02:38:47.470Z,2.33
2022-12-26T02:40:28.508Z,1.52
2022-12-26T02:41:30.720Z,1.27
2022-12-26T02:42:39.073Z,4.65
2022-12-26T02:43:47.974Z,2.17
2022-12-26T02:45:37.189Z,1.83
2022-12-26T02:47:04.541Z,2.38
2022-12-26T02:48:27.710Z,3.92
2022-12-26T02:50:01.047Z,2.28
2022-12-26T02:51:37.804Z,1.75
2022-12-26T02:53:13.523Z,1.92
2022-12-26T02:54:45.930Z,4.10
2022-12-26T02:56:10.565Z,2.70
2022-12-26T02:57:37.772Z,3.35
2022-12-26T02:59:56.271Z,4.18
2022-12-26T03:01:06.127Z,3.05
2022-12-26T03:02:41.331Z,1.75
2022-12-26T03:04:04.763Z,1.58
2022-12-26T03:05:33.785Z,1.35
2022-12-26T03:06:56.336Z,2.22
2022-12-26T03:08:19.160Z,1.45
2022-12-26T03:09:50.854Z,2.42
2022-12-26T03:11:13.159Z,4.68
2022-12-26T03:12:52.613Z,2.60
2022-12-26T03:13:59.593Z,2.78
2022-12-26T03:15:05.470Z,2.50
2022-12-26T03:16:31.093Z,1.77
2022-12-26T03:17:39.599Z,24.20
2022-12-26T03:18:58.941Z,142.13
2022-12-26T03:20:05.866Z,202.40
2022-12-26T03:21:09.724Z,107.50
2022-12-26T03:22:30.522Z,66.53
2022-12-26T03:23:34.625Z,47.83
2022-12-26T03:24:59.883Z,41.67
2022-12-26T03:26:27.821Z,27.17
2022-12-26T03:27:30.146Z,23.95
2022-12-26T03:28:32.735Z,19.70
2022-12-26T03:29:53.765Z,16.85
2022-12-26T03:30:59.599Z,13.13
2022-12-26T03:32:05.079Z,15.13
2022-12-26T03:33:30.547Z,11.70
2022-12-26T03:34:36.989Z,10.55
2022-12-26T03:35:39.874Z,14.45
2022-12-26T03:37:07.811Z,10.77
2022-12-26T03:38:15.388Z,9.30
2022-12-26T03:40:00.698Z,9.20
2022-12-26T03:41:32.400Z,13.55
2022-12-26T03:43:07.924Z,8.98
2022-12-26T03:44:41.211Z,59.80
2022-12-26T03:46:12.808Z,36.72
2022-12-26T03:47:40.501Z,149.65
2022-12-26T03:49:41.935Z,140.38
2022-12-26T03:51:07.674Z,89.45
2022-12-26T03:52:43.666Z,61.50
2022-12-26T03:54:21.150Z,57.50
2022-12-26T03:56:07.249Z,90.22
2022-12-26T03:57:35.182Z,55.00
2022-12-26T03:59:26.529Z,50.17
2022-12-26T04:00:48.565Z,49.60
2022-12-26T04:02:10.715Z,49.17
2022-12-26T04:03:32.729Z,46.63
2022-12-26T04:04:58.916Z,37.83
2022-12-26T04:06:22.520Z,37.50
2022-12-26T04:07:58.233Z,31.92
2022-12-26T04:09:38.384Z,31.85
2022-12-26T04:11:05.698Z,34.55
2022-12-26T04:12:34.279Z,30.42
2022-12-26T04:14:20.313Z,32.95
2022-12-26T04:15:48.141Z,26.35
2022-12-26T04:17:46.493Z,35.33
2022-12-26T04:19:25.789Z,23.70
2022-12-26T04:20:48.903Z,17.83
2022-12-26T04:22:36.635Z,16.98
2022-12-26T04:24:04.120Z,10.85
2022-12-26T04:25:49.417Z,10.02
2022-12-26T04:27:17.157Z,11.70
2022-12-26T04:28:39.844Z,160.02
2022-12-26T04:30:00.872Z,107.93
2022-12-26T04:31:32.131Z,45.50
2022-12-26T04:33:08.018Z,34.17
2022-12-26T04:34:38.659Z,27.08
2022-12-26T04:36:12.397Z,201.13
2022-12-26T04:37:39.643Z,76.53
2022-12-26T04:39:08.659Z,65.90
2022-12-26T04:40:36.523Z,51.47
2022-12-26T04:41:59.128Z,34.65
2022-12-26T04:43:50.114Z,46.53
2022-12-26T04:45:47.083Z,24.70
2022-12-26T04:46:50.969Z,19.65
2022-12-26T04:48:11.893Z,17.13
2022-12-26T04:49:35.914Z,16.40
2022-12-26T04:50:50.521Z,17.92
2022-12-26T04:51:54.478Z,16.08
2022-12-26T04:53:00.479Z,20.67
2022-12-26T04:54:04.466Z,15.85
2022-12-26T04:55:07.262Z,13.07
2022-12-26T04:56:10.854Z,13.93
2022-12-26T04:57:13.237Z,14.73
2022-12-26T04:58:15.713Z,14.60
2022-12-26T04:59:18.930Z,14.52
2022-12-26T05:00:24.835Z,14.60
2022-12-26T05:01:46.172Z,13.27
2022-12-26T05:03:07.277Z,11.32
2022-12-26T05:04:46.691Z,13.98
2022-12-26T05:06:09.605Z,11.85
2022-12-26T05:07:41.534Z,11.18
2022-12-26T05:10:08.548Z,8.93
2022-12-26T05:11:11.002Z,11.38
2022-12-26T05:12:13.315Z,8.85
2022-12-26T05:13:15.620Z,6.75
2022-12-26T05:14:18.183Z,7.60
2022-12-26T05:15:21.686Z,8.45
2022-12-26T05:16:43.975Z,11.07
2022-12-26T05:18:05.370Z,7.13
2022-12-26T05:19:32.372Z,9.43
2022-12-26T05:20:47.094Z,7.40
2022-12-26T05:22:08.228Z,6.40
2022-12-26T05:23:41.761Z,25.35
2022-12-26T05:25:04.412Z,62.72
2022-12-26T05:26:39.239Z,50.45
2022-12-26T05:28:03.623Z,65.47
2022-12-26T05:29:06.017Z,152.73
2022-12-26T05:30:08.750Z,105.00
2022-12-26T05:31:14.304Z,95.93
2022-12-26T05:32:35.442Z,83.22
2022-12-26T05:33:56.466Z,61.42
2022-12-26T05:34:58.760Z,50.60
2022-12-26T05:36:01.163Z,45.38
2022-12-26T05:37:03.778Z,39.25
2022-12-26T05:38:07.498Z,42.85
2022-12-26T05:39:10.259Z,36.55
2022-12-26T05:40:12.754Z,30.63
2022-12-26T05:41:15.804Z,34.47
2022-12-26T05:42:18.109Z,35.03
2022-12-26T05:43:20.432Z,35.30
2022-12-26T05:44:22.695Z,37.08
2022-12-26T05:45:25.003Z,36.30
2022-12-26T05:46:27.686Z,41.40
2022-12-26T05:47:30.122Z,40.08
2022-12-26T05:48:32.445Z,41.55
2022-12-26T05:49:34.729Z,41.60
2022-12-26T05:50:37.053Z,37.90
2022-12-26T05:51:39.452Z,37.20
2022-12-26T05:52:41.766Z,32.22
2022-12-26T05:53:44.322Z,63.70
2022-12-26T05:54:46.658Z,36.10
2022-12-26T05:55:48.891Z,30.33
2022-12-26T05:56:51.236Z,32.00
2022-12-26T05:57:53.582Z,37.08
2022-12-26T05:58:57.828Z,35.20
2022-12-26T06:00:00.179Z,36.65
2022-12-26T06:01:12.151Z,36.47
2022-12-26T06:02:14.719Z,40.85
2022-12-26T06:03:17.239Z,37.67
2022-12-26T06:04:19.615Z,41.40
2022-12-26T06:05:22.349Z,37.50
2022-12-26T06:06:26.251Z,40.03
2022-12-26T06:07:29.259Z,37.08
2022-12-26T06:08:31.651Z,41.33
2022-12-26T06:09:33.955Z,39.55
2022-12-26T06:10:36.231Z,38.53
2022-12-26T06:11:42.534Z,38.17
2022-12-26T06:12:49.186Z,39.80
2022-12-26T06:13:51.739Z,42.28
2022-12-26T06:14:54.091Z,44.70
2022-12-26T06:15:56.499Z,38.45
2022-12-26T06:16:58.853Z,42.25
2022-12-26T06:18:01.147Z,39.83
2022-12-26T06:19:03.430Z,41.85
2022-12-26T06:20:06.543Z,37.72
2022-12-26T06:21:14.772Z,36.72
2022-12-26T06:22:17.211Z,37.13
2022-12-26T06:23:19.556Z,43.00
2022-12-26T06:24:21.839Z,37.90
2022-12-26T06:25:24.113Z,31.87
2022-12-26T06:26:26.840Z,48.40
2022-12-26T06:27:29.178Z,49.33
2022-12-26T06:28:33.192Z,44.28
2022-12-26T06:29:35.745Z,42.53
2022-12-26T06:30:38.186Z,40.35
2022-12-26T06:31:40.585Z,40.97
2022-12-26T06:32:42.901Z,38.38
2022-12-26T06:33:45.229Z,43.50
2022-12-26T06:34:48.233Z,40.55
2022-12-26T06:35:50.486Z,41.58
2022-12-26T06:36:52.827Z,41.55
2022-12-26T06:37:55.174Z,39.85
2022-12-26T06:38:58.007Z,46.78
2022-12-26T06:40:00.547Z,43.65
2022-12-26T06:41:06.469Z,38.55
2022-12-26T06:42:09.658Z,37.88
2022-12-26T06:43:12.102Z,47.55
2022-12-26T06:44:18.155Z,41.88
2022-12-26T06:45:21.843Z,39.00
2022-12-26T06:46:26.199Z,39.90
2022-12-26T06:47:29.226Z,41.72
2022-12-26T06:48:32.132Z,38.65
2022-12-26T06:49:34.450Z,37.75
2022-12-26T06:50:37.247Z,40.28
2022-12-26T06:51:39.666Z,34.42
2022-12-26T06:52:42.121Z,36.38
2022-12-26T06:53:44.580Z,34.15
2022-12-26T06:54:46.882Z,40.03
2022-12-26T06:55:49.844Z,32.40
2022-12-26T06:56:52.158Z,38.78
2022-12-26T06:57:54.515Z,37.00
2022-12-26T06:58:58.906Z,36.83
2022-12-26T07:00:01.352Z,37.63
2022-12-26T07:01:15.979Z,36.45
2022-12-26T07:02:18.545Z,39.28
2022-12-26T07:03:20.993Z,36.53
2022-12-26T07:04:23.317Z,38.15
2022-12-26T07:05:25.746Z,33.55
2022-12-26T07:06:31.323Z,33.00
2022-12-26T07:07:33.834Z,33.78
2022-12-26T07:08:36.116Z,35.13
2022-12-26T07:09:38.425Z,32.60
2022-12-26T07:10:40.940Z,32.45
2022-12-26T07:11:46.132Z,32.42
2022-12-26T07:12:48.662Z,34.03
2022-12-26T07:13:51.065Z,37.03
2022-12-26T07:14:56.680Z,37.08
2022-12-26T07:16:03.839Z,33.38
2022-12-26T07:17:06.516Z,33.58
2022-12-26T07:18:08.978Z,34.20
2022-12-26T07:19:13.144Z,33.67
2022-12-26T07:20:15.424Z,34.47
2022-12-26T07:21:17.813Z,30.65
2022-12-26T07:22:20.156Z,37.22
2022-12-26T07:23:22.622Z,31.40
2022-12-26T07:24:25.138Z,35.67
2022-12-26T07:25:27.540Z,30.00
2022-12-26T07:26:30.128Z,31.95
2022-12-26T07:27:32.453Z,32.83
2022-12-26T07:28:35.235Z,32.90
2022-12-26T07:29:38.559Z,33.25
2022-12-26T07:30:46.945Z,35.08
2022-12-26T07:31:49.491Z,33.03
2022-12-26T07:32:51.965Z,31.08
2022-12-26T07:33:55.658Z,30.35
2022-12-26T07:34:58.217Z,29.95
2022-12-26T07:36:04.511Z,32.72
2022-12-26T07:37:06.886Z,30.98
2022-12-26T07:38:10.123Z,29.73
2022-12-26T07:39:14.325Z,32.30
2022-12-26T07:40:16.857Z,31.67
2022-12-26T07:41:38.178Z,31.02
2022-12-26T07:42:40.516Z,34.58
2022-12-26T07:43:42.823Z,38.50
2022-12-26T07:44:45.268Z,27.27
2022-12-26T07:45:47.677Z,28.10
2022-12-26T07:46:50.358Z,31.40
2022-12-26T07:47:56.822Z,31.73
2022-12-26T07:48:59.260Z,28.83
2022-12-26T07:50:01.808Z,31.35
2022-12-26T07:51:04.127Z,21.50
2022-12-26T07:52:06.570Z,34.55
2022-12-26T07:53:09.327Z,28.73
2022-12-26T07:54:12.444Z,27.17
2022-12-26T07:55:15.326Z,31.58
2022-12-26T07:56:17.704Z,26.10
2022-12-26T07:57:47.634Z,25.80
2022-12-26T07:58:42.360Z,24.73
2022-12-26T07:59:44.792Z,27.38
2022-12-26T08:00:47.462Z,24.13
2022-12-26T08:01:49.981Z,27.17
2022-12-26T08:02:53.312Z,28.40
2022-12-26T08:03:55.964Z,26.38
2022-12-26T08:04:58.597Z,30.58
2022-12-26T08:06:01.526Z,29.00
2022-12-26T08:07:03.893Z,24.65
2022-12-26T08:08:06.409Z,28.33
2022-12-26T08:09:13.106Z,26.00
2022-12-26T08:10:17.225Z,23.58
2022-12-26T08:11:22.672Z,23.83
2022-12-26T08:12:26.755Z,23.67
2022-12-26T08:13:30.107Z,28.40
2022-12-26T08:14:32.457Z,25.23
2022-12-26T08:15:37.590Z,23.75
2022-12-26T08:16:40.389Z,24.48
2022-12-26T08:17:44.286Z,24.45
2022-12-26T08:18:46.654Z,26.00
2022-12-26T08:19:49.611Z,27.05
2022-12-26T08:20:52.064Z,23.98
2022-12-26T08:21:54.417Z,26.10
2022-12-26T08:23:59.995Z,24.20
2022-12-26T08:25:03.435Z,25.75
2022-12-26T08:26:11.646Z,24.48
2022-12-26T08:27:17.536Z,25.65
2022-12-26T08:28:19.914Z,24.38
2022-12-26T08:29:22.181Z,23.25
2022-12-26T08:30:24.825Z,21.23
2022-12-26T08:31:27.280Z,21.77
2022-12-26T08:32:29.642Z,20.48
2022-12-26T08:33:32.005Z,22.05
2022-12-26T08:34:35.253Z,24.85
2022-12-26T08:35:38.917Z,21.77
2022-12-26T08:36:41.245Z,21.83
2022-12-26T08:37:43.867Z,23.38
2022-12-26T08:38:46.578Z,24.25
2022-12-26T08:39:49.634Z,20.08
2022-12-26T08:40:56.203Z,20.35
2022-12-26T08:41:59.135Z,21.63
2022-12-26T08:43:22.107Z,23.23
2022-12-26T08:44:27.299Z,19.23
2022-12-26T08:45:30.694Z,22.85
2022-12-26T08:46:33.196Z,20.20
2022-12-26T08:47:36.028Z,20.60
2022-12-26T08:48:40.069Z,62.53
2022-12-26T08:49:42.416Z,65.20
2022-12-26T08:50:44.748Z,45.15
2022-12-26T08:51:47.091Z,54.33
2022-12-26T08:52:49.440Z,50.47
2022-12-26T08:53:54.264Z,49.17
2022-12-26T08:54:56.715Z,50.53
2022-12-26T08:55:59.790Z,46.17
2022-12-26T08:57:02.252Z,45.30
2022-12-26T08:58:04.829Z,45.95
2022-12-26T08:59:07.206Z,44.47
2022-12-26T09:00:10.383Z,47.35
2022-12-26T09:01:18.501Z,41.97
2022-12-26T09:02:21.458Z,42.63
2022-12-26T09:03:23.928Z,45.28
2022-12-26T09:04:28.005Z,41.85
2022-12-26T09:05:31.732Z,42.65
2022-12-26T09:06:39.628Z,40.35
2022-12-26T09:07:41.963Z,42.40
2022-12-26T09:08:45.238Z,44.05
2022-12-26T09:09:48.611Z,41.92
2022-12-26T09:10:50.901Z,37.65
2022-12-26T09:11:53.245Z,37.53
2022-12-26T09:12:55.544Z,38.83
2022-12-26T09:14:01.247Z,37.78
2022-12-26T09:15:04.039Z,40.15
2022-12-26T09:16:19.130Z,39.83
2022-12-26T09:17:21.575Z,37.42
2022-12-26T09:18:23.943Z,33.40
2022-12-26T09:19:29.713Z,34.95
2022-12-26T09:20:33.520Z,38.30
2022-12-26T09:21:35.962Z,32.50
2022-12-26T09:22:50.442Z,33.90
2022-12-26T09:24:00.234Z,31.25
2022-12-26T09:25:03.411Z,35.30
2022-12-26T09:26:09.266Z,37.80
2022-12-26T09:27:11.593Z,32.72
2022-12-26T09:28:14.023Z,31.08
2022-12-26T09:29:16.348Z,33.38
2022-12-26T09:30:18.740Z,32.35
2022-12-26T09:31:24.088Z,31.63
2022-12-26T09:32:26.480Z,29.42
2022-12-26T09:33:30.583Z,29.70
2022-12-26T09:34:32.945Z,32.03
2022-12-26T09:35:35.325Z,30.48
2022-12-26T09:36:38.900Z,31.42
2022-12-26T09:37:41.386Z,28.05
2022-12-26T09:38:44.938Z,27.92
2022-12-26T09:39:47.299Z,30.00
2022-12-26T09:41:10.934Z,28.48
2022-12-26T09:42:54.493Z,26.80
2022-12-26T09:44:15.264Z,26.92
2022-12-26T09:45:25.346Z,25.90
2022-12-26T09:46:39.250Z,25.95
2022-12-26T09:48:04.205Z,43.78
2022-12-26T09:49:13.714Z,44.42
2022-12-26T09:50:29.429Z,31.38
2022-12-26T09:51:34.383Z,31.20
2022-12-26T09:52:50.600Z,30.27
2022-12-26T09:53:54.616Z,32.92
2022-12-26T09:55:00.818Z,30.90
2022-12-26T09:56:10.899Z,33.28
2022-12-26T09:57:29.325Z,29.50
2022-12-26T09:58:34.063Z,34.75
2022-12-26T09:59:48.178Z,33.33
2022-12-26T10:00:59.130Z,31.38
2022-12-26T10:02:01.734Z,28.92
2022-12-26T10:03:04.559Z,35.35
2022-12-26T10:04:28.242Z,34.70
2022-12-26T10:05:38.749Z,26.40
2022-12-26T10:06:48.016Z,26.92
2022-12-26T10:07:58.045Z,27.67
2022-12-26T10:09:08.829Z,34.03
2022-12-26T10:10:12.731Z,30.45
2022-12-26T10:11:20.747Z,26.13
2022-12-26T10:12:55.776Z,27.17
2022-12-26T10:14:25.274Z,29.75
2022-12-26T10:15:40.213Z,34.35
2022-12-26T10:17:00.532Z,27.13
2022-12-26T10:18:13.250Z,25.48
2022-12-26T10:19:59.029Z,23.33
2022-12-26T10:21:33.584Z,18.02
2022-12-26T10:22:42.023Z,16.17
2022-12-26T10:24:08.571Z,17.95
2022-12-26T10:25:39.271Z,21.30
2022-12-26T10:26:46.303Z,21.45
2022-12-26T10:27:50.909Z,19.52
2022-12-26T10:29:02.645Z,30.40
2022-12-26T10:30:09.167Z,26.80
2022-12-26T10:31:22.609Z,26.65
2022-12-26T10:32:37.870Z,20.83
2022-12-26T10:33:54.153Z,31.55
2022-12-26T10:34:58.796Z,28.67
2022-12-26T10:36:01.556Z,23.80
2022-12-26T10:37:37.339Z,21.88
2022-12-26T10:38:46.723Z,25.50
2022-12-26T10:40:00.928Z,21.52
2022-12-26T10:41:25.493Z,23.42
2022-12-26T10:43:01.039Z,24.08
2022-12-26T10:44:03.578Z,23.90
2022-12-26T10:45:19.835Z,20.63
2022-12-26T10:46:37.362Z,15.60
2022-12-26T10:47:42.600Z,270.75
2022-12-26T10:48:45.486Z,121.32
2022-12-26T10:49:48.557Z,97.07
2022-12-26T10:50:51.063Z,91.65
2022-12-26T10:51:56.110Z,83.18
2022-12-26T10:53:00.265Z,70.07
2022-12-26T10:54:03.753Z,64.40
2022-12-26T10:55:28.082Z,58.05
2022-12-26T10:56:31.062Z,56.47
2022-12-26T10:57:36.838Z,48.78
2022-12-26T10:58:40.938Z,43.30
2022-12-26T10:59:49.641Z,50.10
2022-12-26T11:00:52.067Z,37.78
2022-12-26T11:01:54.376Z,37.85
2022-12-26T11:03:05.330Z,33.30
2022-12-26T11:05:02.006Z,30.83
2022-12-26T11:06:07.400Z,40.20
2022-12-26T11:07:12.927Z,25.02
2022-12-26T11:08:39.121Z,24.60
2022-12-26T11:09:46.034Z,20.05
2022-12-26T11:11:20.237Z,22.75
2022-12-26T11:12:40.427Z,18.98
2022-12-26T11:13:49.001Z,18.55
2022-12-26T11:14:59.190Z,18.85
2022-12-26T11:16:01.924Z,169.35
2022-12-26T11:17:08.972Z,152.85
2022-12-26T11:18:27.686Z,41.15
2022-12-26T11:19:37.103Z,46.38
2022-12-26T11:20:39.404Z,21.27
2022-12-26T11:21:41.708Z,24.08
2022-12-26T11:22:45.076Z,18.33
2022-12-26T11:23:52.482Z,15.88
2022-12-26T11:25:24.939Z,13.10
2022-12-26T11:26:32.280Z,12.57
2022-12-26T11:27:35.094Z,10.95
2022-12-26T11:28:38.310Z,10.80
2022-12-26T11:29:42.503Z,8.75
2022-12-26T11:30:47.979Z,9.80
2022-12-26T11:32:01.854Z,9.55
2022-12-26T11:33:18.041Z,6.30
2022-12-26T11:34:46.135Z,5.05
2022-12-26T11:35:57.760Z,6.97
2022-12-26T11:37:00.636Z,5.07
2022-12-26T11:38:13.483Z,13.75
2022-12-26T11:39:24.466Z,14.65
2022-12-26T11:41:07.107Z,154.88
2022-12-26T11:42:19.632Z,105.63
2022-12-26T11:43:25.648Z,44.10
2022-12-26T11:44:34.998Z,34.28
2022-12-26T11:45:43.781Z,27.33
2022-12-26T11:47:00.821Z,24.80
2022-12-26T11:48:08.486Z,16.30
2022-12-26T11:49:41.429Z,18.80
2022-12-26T11:50:46.081Z,15.82
2022-12-26T11:51:54.155Z,15.77
2022-12-26T11:53:01.799Z,11.80
2022-12-26T11:54:31.792Z,14.18
2022-12-26T11:55:39.099Z,12.93
2022-12-26T11:56:41.594Z,14.32
2022-12-26T11:58:15.856Z,10.75
2022-12-26T11:59:21.991Z,10.80
2022-12-26T12:00:25.289Z,10.93
2022-12-26T12:01:27.808Z,9.90
2022-12-26T12:02:32.088Z,8.63
2022-12-26T12:03:36.382Z,9.48
2022-12-26T12:04:38.765Z,10.68
2022-12-26T12:05:54.699Z,9.13
2022-12-26T12:07:09.244Z,6.68
2022-12-26T12:08:48.844Z,24.80
2022-12-26T12:10:05.276Z,225.43
2022-12-26T12:11:30.454Z,51.90
2022-12-26T12:12:51.297Z,80.68
2022-12-26T12:14:06.336Z,53.17
2022-12-26T12:15:24.923Z,48.08
2022-12-26T12:16:49.918Z,36.47
2022-12-26T12:18:34.960Z,26.92
2022-12-26T12:19:49.519Z,22.13
2022-12-26T12:21:13.268Z,21.63
2022-12-26T12:22:36.068Z,22.65
2022-12-26T12:24:15.749Z,17.48
2022-12-26T12:25:28.675Z,18.05
2022-12-26T12:26:57.612Z,17.05
2022-12-26T12:28:34.448Z,18.63
2022-12-26T12:29:48.922Z,17.35
2022-12-26T12:31:06.162Z,18.20
2022-12-26T12:32:25.170Z,13.75
2022-12-26T12:33:57.279Z,12.65
2022-12-26T12:35:14.833Z,16.58
2022-12-26T12:36:31.527Z,12.98
2022-12-26T12:38:00.565Z,13.77
2022-12-26T12:39:19.717Z,14.98
2022-12-26T12:40:43.525Z,10.65
2022-12-26T12:42:13.692Z,12.35
2022-12-26T12:43:33.060Z,11.63
2022-12-26T12:44:56.620Z,13.13
2022-12-26T12:46:19.346Z,11.52
2022-12-26T12:47:59.634Z,12.13
2022-12-26T12:49:23.863Z,14.45
2022-12-26T12:50:53.077Z,10.20
2022-12-26T12:52:13.320Z,10.45
2022-12-26T12:53:37.239Z,11.13
2022-12-26T12:54:59.805Z,11.48
2022-12-26T12:56:42.581Z,9.07
2022-12-26T12:58:07.666Z,12.68
2022-12-26T12:59:31.410Z,13.23
2022-12-26T13:00:48.952Z,8.50
2022-12-26T13:01:57.594Z,7.63
2022-12-26T13:03:23.509Z,8.73
2022-12-26T13:04:55.923Z,7.97
2022-12-26T13:06:22.721Z,7.63
2022-12-26T13:07:31.754Z,6.75
2022-12-26T13:08:45.916Z,6.15
2022-12-26T13:09:52.908Z,8.93
2022-12-26T13:11:01.467Z,8.90
2022-12-26T13:12:09.457Z,6.53
2022-12-26T13:13:24.671Z,5.82
2022-12-26T13:14:44.173Z,7.10
2022-12-26T13:15:51.309Z,6.85
2022-12-26T13:17:14.397Z,7.25
2022-12-26T13:18:23.482Z,6.18
2022-12-26T13:19:32.378Z,4.95
2022-12-26T13:20:41.996Z,6.68
2022-12-26T13:21:47.112Z,6.93
2022-12-26T13:23:15.221Z,8.40
2022-12-26T13:24:39.545Z,6.20
2022-12-26T13:25:48.927Z,14.60
2022-12-26T13:27:18.321Z,6.53
2022-12-26T13:28:29.370Z,6.70
2022-12-26T13:29:31.830Z,7.72
2022-12-26T13:30:34.375Z,12.05
2022-12-26T13:31:38.412Z,7.00
2022-12-26T13:32:46.301Z,7.20
2022-12-26T13:33:49.337Z,11.02
2022-12-26T13:34:54.691Z,11.10
2022-12-26T13:36:02.728Z,10.85
2022-12-26T13:37:05.059Z,14.05
2022-12-26T13:38:07.368Z,12.98
2022-12-26T13:39:12.434Z,13.35
2022-12-26T13:40:20.238Z,9.55
2022-12-26T13:41:43.326Z,8.85
2022-12-26T13:43:24.683Z,6.97
2022-12-26T13:44:27.620Z,5.07
2022-12-26T13:45:35.899Z,7.07
2022-12-26T13:46:41.859Z,8.15
2022-12-26T13:47:44.218Z,7.28
2022-12-26T13:48:55.120Z,7.60
2022-12-26T13:49:57.440Z,7.97
2022-12-26T13:51:02.550Z,6.95
2022-12-26T13:52:10.631Z,7.97
2022-12-26T13:53:24.996Z,6.22
2022-12-26T13:54:28.461Z,8.68
2022-12-26T13:55:41.980Z,11.77
2022-12-26T13:56:46.218Z,12.77
2022-12-26T13:58:09.266Z,12.65
2022-12-26T13:59:24.259Z,12.27
2022-12-26T14:00:47.189Z,16.10
2022-12-26T14:02:19.354Z,9.02
2022-12-26T14:03:52.391Z,11.35
2022-12-26T14:05:26.328Z,13.68
2022-12-26T14:06:43.288Z,11.40
2022-12-26T14:08:03.204Z,20.58
2022-12-26T14:09:17.049Z,14.85
2022-12-26T14:10:39.294Z,11.73
2022-12-26T14:11:59.879Z,11.75
2022-12-26T14:13:49.804Z,19.42
2022-12-26T14:15:16.800Z,10.05
2022-12-26T14:16:36.007Z,9.32
2022-12-26T14:17:54.803Z,12.50
2022-12-26T14:19:39.932Z,12.10
2022-12-26T14:21:08.034Z,10.82
2022-12-26T14:22:20.378Z,16.83
2022-12-26T14:23:41.002Z,17.92
2022-12-26T14:24:54.733Z,11.18
2022-12-26T14:26:26.585Z,24.17
2022-12-26T14:27:52.101Z,12.90
2022-12-26T14:29:22.179Z,13.32
2022-12-26T14:30:38.878Z,12.07
2022-12-26T14:32:01.975Z,14.27
2022-12-26T14:33:22.753Z,14.65
2022-12-26T14:34:46.492Z,12.63
2022-12-26T14:36:19.096Z,10.43
2022-12-26T14:37:42.114Z,14.50
2022-12-26T14:38:55.259Z,12.52
2022-12-26T14:40:18.843Z,11.30
2022-12-26T14:41:40.407Z,19.17
2022-12-26T14:43:14.230Z,11.45
2022-12-26T14:44:36.622Z,14.82
2022-12-26T14:45:41.722Z,11.88
2022-12-26T14:46:44.063Z,12.13
2022-12-26T14:47:48.790Z,13.90
2022-12-26T14:48:54.883Z,13.00
2022-12-26T14:49:57.335Z,18.05
2022-12-26T14:51:14.490Z,12.73
2022-12-26T14:52:25.624Z,11.63
2022-12-26T14:53:34.969Z,11.23
2022-12-26T14:54:39.507Z,14.38
2022-12-26T14:55:48.935Z,13.75
2022-12-26T14:56:52.563Z,15.13
2022-12-26T14:57:55.304Z,17.02
2022-12-26T14:59:28.547Z,11.88
2022-12-26T15:00:32.454Z,18.55
2022-12-26T15:01:34.835Z,13.65
2022-12-26T15:02:42.102Z,18.80
2022-12-26T15:03:59.875Z,21.20
2022-12-26T15:05:13.958Z,19.73
2022-12-26T15:06:19.112Z,12.32
2022-12-26T15:07:59.504Z,14.90
2022-12-26T15:09:35.793Z,13.77
2022-12-26T15:10:43.745Z,23.10
2022-12-26T15:12:07.214Z,11.57
2022-12-26T15:13:48.903Z,16.40
2022-12-26T15:15:21.948Z,13.00
2022-12-26T15:16:57.745Z,12.82
2022-12-26T15:18:05.949Z,9.73
2022-12-26T15:19:45.465Z,12.70
2022-12-26T15:21:25.416Z,13.52
2022-12-26T15:22:39.838Z,10.70
2022-12-26T15:24:03.764Z,13.98
2022-12-26T15:25:47.552Z,12.20
2022-12-26T15:27:01.609Z,43.80
2022-12-26T15:28:33.406Z,45.33
2022-12-26T15:30:02.586Z,20.23
2022-12-26T15:31:11.963Z,69.13
2022-12-26T15:32:55.505Z,54.97
2022-12-26T15:34:11.445Z,26.45
2022-12-26T15:35:27.911Z,20.15
2022-12-26T15:36:58.190Z,11.32
2022-12-26T15:38:17.389Z,13.25
2022-12-26T15:39:32.466Z,17.40
2022-12-26T15:41:04.110Z,10.98